sensor_id;sensor_type;location;lat;lon;timestamp;P1;durP1;ratioP1;P2;durP2;ratioP2
71490;SDS011;59307;50.060;9.150;2023-06-04T00:00:15;4.33;;;1.00;;
71490;SDS011;59307;50.060;9.150;2023-06-04T00:02:41;3.33;;;0.98;;
71490;SDS011;59307;50.060;9.150;2023-06-04T00:05:06;2.27;;;1.10;;
71490;SDS011;59307;50.060;9.150;2023-06-04T00:07:31;2.73;;;0.90;;
71490;SDS011;59307;50.060;9.150;2023-06-04T00:09:56;3.67;;;0.93;;
71490;SDS011;59307;50.060;9.150;2023-06-04T00:12:22;2.10;;;0.90;;
71490;SDS011;59307;50.060;9.150;2023-06-04T00:14:47;8.83;;;1.10;;
71490;SDS011;59307;50.060;9.150;2023-06-04T00:17:12;4.20;;;1.00;;
71490;SDS011;59307;50.060;9.150;2023-06-04T00:19:40;1.77;;;1.10;;
71490;SDS011;59307;50.060;9.150;2023-06-04T00:22:06;6.53;;;1.20;;
71490;SDS011;59307;50.060;9.150;2023-06-04T00:24:31;3.08;;;0.90;;
71490;SDS011;59307;50.060;9.150;2023-06-04T00:26:57;1.77;;;0.80;;
71490;SDS011;59307;50.060;9.150;2023-06-04T00:29:22;2.80;;;1.03;;
71490;SDS011;59307;50.060;9.150;2023-06-04T00:31:47;2.63;;;1.17;;
71490;SDS011;59307;50.060;9.150;2023-06-04T00:34:12;3.00;;;1.10;;
71490;SDS011;59307;50.060;9.150;2023-06-04T00:36:38;2.13;;;1.10;;
71490;SDS011;59307;50.060;9.150;2023-06-04T00:39:03;1.25;;;0.82;;
71490;SDS011;59307;50.060;9.150;2023-06-04T00:41:28;2.10;;;1.00;;
71490;SDS011;59307;50.060;9.150;2023-06-04T00:43:54;3.20;;;1.10;;
71490;SDS011;59307;50.060;9.150;2023-06-04T00:46:23;3.22;;;0.90;;
71490;SDS011;59307;50.060;9.150;2023-06-04T00:48:50;2.60;;;1.20;;
71490;SDS011;59307;50.060;9.150;2023-06-04T00:51:15;2.53;;;1.02;;
71490;SDS011;59307;50.060;9.150;2023-06-04T00:53:41;2.33;;;1.20;;
71490;SDS011;59307;50.060;9.150;2023-06-04T00:56:06;3.00;;;1.00;;
71490;SDS011;59307;50.060;9.150;2023-06-04T00:58:33;2.60;;;1.20;;
71490;SDS011;59307;50.060;9.150;2023-06-04T01:00:58;7.20;;;1.40;;
71490;SDS011;59307;50.060;9.150;2023-06-04T01:03:26;2.85;;;1.10;;
71490;SDS011;59307;50.060;9.150;2023-06-04T01:05:56;2.65;;;1.13;;
71490;SDS011;59307;50.060;9.150;2023-06-04T01:08:24;3.00;;;1.00;;
71490;SDS011;59307;50.060;9.150;2023-06-04T01:10:51;3.05;;;1.08;;
71490;SDS011;59307;50.060;9.150;2023-06-04T01:13:16;2.00;;;1.05;;
71490;SDS011;59307;50.060;9.150;2023-06-04T01:15:41;3.43;;;1.03;;
71490;SDS011;59307;50.060;9.150;2023-06-04T01:18:06;1.93;;;1.20;;
71490;SDS011;59307;50.060;9.150;2023-06-04T01:25:33;2.53;;;0.93;;
71490;SDS011;59307;50.060;9.150;2023-06-04T01:28:01;3.13;;;1.10;;
71490;SDS011;59307;50.060;9.150;2023-06-04T01:30:29;2.30;;;1.10;;
71490;SDS011;59307;50.060;9.150;2023-06-04T01:32:55;2.47;;;1.10;;
71490;SDS011;59307;50.060;9.150;2023-06-04T01:35:21;2.33;;;1.20;;
71490;SDS011;59307;50.060;9.150;2023-06-04T01:37:46;2.60;;;1.02;;
71490;SDS011;59307;50.060;9.150;2023-06-04T01:40:12;1.67;;;1.10;;
71490;SDS011;59307;50.060;9.150;2023-06-04T01:42:37;2.57;;;1.00;;
71490;SDS011;59307;50.060;9.150;2023-06-04T01:45:03;3.17;;;1.20;;
71490;SDS011;59307;50.060;9.150;2023-06-04T01:47:28;2.67;;;1.30;;
71490;SDS011;59307;50.060;9.150;2023-06-04T01:49:53;2.10;;;1.20;;
71490;SDS011;59307;50.060;9.150;2023-06-04T01:52:18;3.10;;;1.20;;
71490;SDS011;59307;50.060;9.150;2023-06-04T01:54:46;2.40;;;1.20;;
71490;SDS011;59307;50.060;9.150;2023-06-04T01:57:11;3.43;;;1.00;;
71490;SDS011;59307;50.060;9.150;2023-06-04T01:59:36;5.00;;;1.43;;
71490;SDS011;59307;50.060;9.150;2023-06-04T02:02:01;2.33;;;1.10;;
71490;SDS011;59307;50.060;9.150;2023-06-04T02:04:27;3.67;;;1.20;;
71490;SDS011;59307;50.060;9.150;2023-06-04T02:06:53;3.13;;;1.10;;
71490;SDS011;59307;50.060;9.150;2023-06-04T02:09:18;5.57;;;2.50;;
71490;SDS011;59307;50.060;9.150;2023-06-04T02:11:43;4.40;;;1.50;;
71490;SDS011;59307;50.060;9.150;2023-06-04T02:14:08;4.63;;;1.73;;
71490;SDS011;59307;50.060;9.150;2023-06-04T02:16:33;2.03;;;1.13;;
71490;SDS011;59307;50.060;9.150;2023-06-04T02:18:59;2.40;;;1.00;;
71490;SDS011;59307;50.060;9.150;2023-06-04T02:21:24;6.47;;;1.40;;
71490;SDS011;59307;50.060;9.150;2023-06-04T02:23:49;1.58;;;1.00;;
71490;SDS011;59307;50.060;9.150;2023-06-04T02:26:14;3.43;;;1.10;;
71490;SDS011;59307;50.060;9.150;2023-06-04T02:28:40;2.90;;;1.07;;
71490;SDS011;59307;50.060;9.150;2023-06-04T02:31:05;2.47;;;0.93;;
71490;SDS011;59307;50.060;9.150;2023-06-04T02:33:30;1.97;;;0.93;;
71490;SDS011;59307;50.060;9.150;2023-06-04T02:35:56;5.27;;;1.33;;
71490;SDS011;59307;50.060;9.150;2023-06-04T02:38:21;3.20;;;0.90;;
71490;SDS011;59307;50.060;9.150;2023-06-04T02:40:46;2.47;;;1.20;;
71490;SDS011;59307;50.060;9.150;2023-06-04T02:43:11;2.83;;;1.03;;
71490;SDS011;59307;50.060;9.150;2023-06-04T02:45:36;3.93;;;1.30;;
71490;SDS011;59307;50.060;9.150;2023-06-04T02:48:01;1.77;;;1.00;;
71490;SDS011;59307;50.060;9.150;2023-06-04T02:50:27;3.23;;;1.37;;
71490;SDS011;59307;50.060;9.150;2023-06-04T02:52:52;3.33;;;1.43;;
71490;SDS011;59307;50.060;9.150;2023-06-04T02:55:17;3.37;;;1.27;;
71490;SDS011;59307;50.060;9.150;2023-06-04T02:57:42;2.20;;;1.20;;
71490;SDS011;59307;50.060;9.150;2023-06-04T03:00:08;4.63;;;1.10;;
71490;SDS011;59307;50.060;9.150;2023-06-04T03:02:37;5.10;;;1.20;;
71490;SDS011;59307;50.060;9.150;2023-06-04T03:05:02;6.35;;;1.30;;
71490;SDS011;59307;50.060;9.150;2023-06-04T03:07:29;4.10;;;1.05;;
71490;SDS011;59307;50.060;9.150;2023-06-04T03:09:54;2.80;;;1.10;;
71490;SDS011;59307;50.060;9.150;2023-06-04T03:12:19;4.03;;;1.90;;
71490;SDS011;59307;50.060;9.150;2023-06-04T03:14:44;3.23;;;1.60;;
71490;SDS011;59307;50.060;9.150;2023-06-04T03:17:09;2.17;;;1.40;;
71490;SDS011;59307;50.060;9.150;2023-06-04T03:19:38;4.53;;;1.40;;
71490;SDS011;59307;50.060;9.150;2023-06-04T03:22:04;3.17;;;1.47;;
71490;SDS011;59307;50.060;9.150;2023-06-04T03:24:32;2.70;;;1.48;;
71490;SDS011;59307;50.060;9.150;2023-06-04T03:26:57;3.65;;;1.30;;
71490;SDS011;59307;50.060;9.150;2023-06-04T03:29:23;3.77;;;1.20;;
71490;SDS011;59307;50.060;9.150;2023-06-04T03:31:48;3.43;;;1.37;;
71490;SDS011;59307;50.060;9.150;2023-06-04T03:34:13;4.63;;;1.10;;
71490;SDS011;59307;50.060;9.150;2023-06-04T03:36:38;3.87;;;1.07;;
71490;SDS011;59307;50.060;9.150;2023-06-04T03:39:03;4.40;;;1.13;;
71490;SDS011;59307;50.060;9.150;2023-06-04T03:41:29;4.30;;;1.08;;
71490;SDS011;59307;50.060;9.150;2023-06-04T03:43:54;3.20;;;1.40;;
71490;SDS011;59307;50.060;9.150;2023-06-04T03:46:20;3.03;;;1.10;;
71490;SDS011;59307;50.060;9.150;2023-06-04T03:48:45;1.87;;;0.93;;
71490;SDS011;59307;50.060;9.150;2023-06-04T03:51:11;1.33;;;1.00;;
71490;SDS011;59307;50.060;9.150;2023-06-04T03:53:36;5.78;;;1.40;;
71490;SDS011;59307;50.060;9.150;2023-06-04T03:56:01;8.37;;;1.43;;
71490;SDS011;59307;50.060;9.150;2023-06-04T03:58:26;3.80;;;1.20;;
71490;SDS011;59307;50.060;9.150;2023-06-04T04:00:53;3.03;;;1.30;;
71490;SDS011;59307;50.060;9.150;2023-06-04T04:03:18;2.03;;;1.10;;
71490;SDS011;59307;50.060;9.150;2023-06-04T04:05:44;2.10;;;1.30;;
71490;SDS011;59307;50.060;9.150;2023-06-04T04:08:09;2.13;;;1.20;;
71490;SDS011;59307;50.060;9.150;2023-06-04T04:10:34;1.90;;;1.30;;
71490;SDS011;59307;50.060;9.150;2023-06-04T04:13:00;1.73;;;1.10;;
71490;SDS011;59307;50.060;9.150;2023-06-04T04:15:25;6.63;;;1.20;;
71490;SDS011;59307;50.060;9.150;2023-06-04T04:17:50;4.43;;;1.40;;
71490;SDS011;59307;50.060;9.150;2023-06-04T04:20:15;4.00;;;1.58;;
71490;SDS011;59307;50.060;9.150;2023-06-04T04:22:41;2.00;;;1.20;;
71490;SDS011;59307;50.060;9.150;2023-06-04T04:25:07;6.97;;;2.13;;
71490;SDS011;59307;50.060;9.150;2023-06-04T04:27:33;4.03;;;1.45;;
71490;SDS011;59307;50.060;9.150;2023-06-04T04:29:59;2.38;;;1.17;;
71490;SDS011;59307;50.060;9.150;2023-06-04T04:32:25;2.07;;;1.10;;
71490;SDS011;59307;50.060;9.150;2023-06-04T04:34:52;3.00;;;1.20;;
71490;SDS011;59307;50.060;9.150;2023-06-04T04:37:18;1.90;;;1.20;;
71490;SDS011;59307;50.060;9.150;2023-06-04T04:39:46;6.00;;;1.10;;
71490;SDS011;59307;50.060;9.150;2023-06-04T04:42:11;2.67;;;1.10;;
71490;SDS011;59307;50.060;9.150;2023-06-04T04:44:36;2.40;;;1.20;;
71490;SDS011;59307;50.060;9.150;2023-06-04T04:47:01;2.53;;;1.10;;
71490;SDS011;59307;50.060;9.150;2023-06-04T04:49:27;3.33;;;1.10;;
71490;SDS011;59307;50.060;9.150;2023-06-04T04:51:52;4.93;;;1.40;;
71490;SDS011;59307;50.060;9.150;2023-06-04T04:54:17;6.93;;;4.30;;
71490;SDS011;59307;50.060;9.150;2023-06-04T04:56:42;6.43;;;4.10;;
71490;SDS011;59307;50.060;9.150;2023-06-04T04:59:07;5.23;;;2.53;;
71490;SDS011;59307;50.060;9.150;2023-06-04T05:01:33;4.17;;;1.90;;
71490;SDS011;59307;50.060;9.150;2023-06-04T05:03:58;3.60;;;1.30;;
71490;SDS011;59307;50.060;9.150;2023-06-04T05:06:23;2.80;;;1.30;;
71490;SDS011;59307;50.060;9.150;2023-06-04T05:08:48;3.37;;;1.13;;
71490;SDS011;59307;50.060;9.150;2023-06-04T05:11:13;4.57;;;1.30;;
71490;SDS011;59307;50.060;9.150;2023-06-04T05:13:38;1.83;;;1.00;;
71490;SDS011;59307;50.060;9.150;2023-06-04T05:16:05;2.22;;;1.10;;
71490;SDS011;59307;50.060;9.150;2023-06-04T05:18:39;3.17;;;1.30;;
71490;SDS011;59307;50.060;9.150;2023-06-04T05:21:09;2.40;;;1.10;;
71490;SDS011;59307;50.060;9.150;2023-06-04T05:23:36;2.43;;;1.40;;
71490;SDS011;59307;50.060;9.150;2023-06-04T05:26:02;2.97;;;1.42;;
71490;SDS011;59307;50.060;9.150;2023-06-04T05:28:27;2.27;;;1.20;;
71490;SDS011;59307;50.060;9.150;2023-06-04T05:30:53;2.50;;;1.20;;
71490;SDS011;59307;50.060;9.150;2023-06-04T05:33:23;2.40;;;1.20;;
71490;SDS011;59307;50.060;9.150;2023-06-04T05:35:49;2.80;;;1.30;;
71490;SDS011;59307;50.060;9.150;2023-06-04T05:38:14;7.33;;;1.57;;
71490;SDS011;59307;50.060;9.150;2023-06-04T05:40:43;1.85;;;1.10;;
71490;SDS011;59307;50.060;9.150;2023-06-04T05:43:08;2.87;;;1.27;;
71490;SDS011;59307;50.060;9.150;2023-06-04T05:45:34;2.90;;;1.40;;
71490;SDS011;59307;50.060;9.150;2023-06-04T05:47:59;2.10;;;1.20;;
71490;SDS011;59307;50.060;9.150;2023-06-04T05:50:24;2.97;;;1.47;;
71490;SDS011;59307;50.060;9.150;2023-06-04T05:52:49;2.70;;;1.10;;
71490;SDS011;59307;50.060;9.150;2023-06-04T05:55:15;2.00;;;1.20;;
71490;SDS011;59307;50.060;9.150;2023-06-04T05:57:41;3.47;;;1.10;;
71490;SDS011;59307;50.060;9.150;2023-06-04T06:00:07;3.60;;;1.50;;
71490;SDS011;59307;50.060;9.150;2023-06-04T06:02:35;3.70;;;1.90;;
71490;SDS011;59307;50.060;9.150;2023-06-04T06:05:00;5.80;;;2.37;;
71490;SDS011;59307;50.060;9.150;2023-06-04T06:07:26;2.90;;;1.43;;
71490;SDS011;59307;50.060;9.150;2023-06-04T06:09:51;2.47;;;1.50;;
71490;SDS011;59307;50.060;9.150;2023-06-04T06:12:16;3.10;;;1.23;;
71490;SDS011;59307;50.060;9.150;2023-06-04T06:14:41;2.97;;;1.23;;
71490;SDS011;59307;50.060;9.150;2023-06-04T06:17:06;3.53;;;1.50;;
71490;SDS011;59307;50.060;9.150;2023-06-04T06:19:31;5.37;;;1.53;;
71490;SDS011;59307;50.060;9.150;2023-06-04T06:21:57;4.03;;;1.60;;
71490;SDS011;59307;50.060;9.150;2023-06-04T06:24:23;2.30;;;1.20;;
71490;SDS011;59307;50.060;9.150;2023-06-04T06:26:48;3.07;;;1.23;;
71490;SDS011;59307;50.060;9.150;2023-06-04T06:29:13;2.03;;;1.30;;
71490;SDS011;59307;50.060;9.150;2023-06-04T06:31:39;3.60;;;1.37;;
71490;SDS011;59307;50.060;9.150;2023-06-04T06:34:04;4.43;;;1.40;;
71490;SDS011;59307;50.060;9.150;2023-06-04T06:36:30;3.38;;;1.20;;
71490;SDS011;59307;50.060;9.150;2023-06-04T06:38:55;2.23;;;1.10;;
71490;SDS011;59307;50.060;9.150;2023-06-04T06:41:20;2.00;;;1.13;;
71490;SDS011;59307;50.060;9.150;2023-06-04T06:43:46;5.37;;;1.50;;
71490;SDS011;59307;50.060;9.150;2023-06-04T06:46:11;2.60;;;1.30;;
71490;SDS011;59307;50.060;9.150;2023-06-04T06:48:36;3.57;;;1.60;;
71490;SDS011;59307;50.060;9.150;2023-06-04T06:51:01;3.92;;;1.42;;
71490;SDS011;59307;50.060;9.150;2023-06-04T06:53:27;2.17;;;1.20;;
71490;SDS011;59307;50.060;9.150;2023-06-04T06:55:52;3.80;;;1.10;;
71490;SDS011;59307;50.060;9.150;2023-06-04T06:58:17;6.03;;;1.53;;
71490;SDS011;59307;50.060;9.150;2023-06-04T07:00:42;2.23;;;1.33;;
71490;SDS011;59307;50.060;9.150;2023-06-04T07:03:08;3.03;;;1.40;;
71490;SDS011;59307;50.060;9.150;2023-06-04T07:05:33;3.63;;;1.40;;
71490;SDS011;59307;50.060;9.150;2023-06-04T07:07:58;2.53;;;1.27;;
71490;SDS011;59307;50.060;9.150;2023-06-04T07:10:25;5.50;;;1.60;;
71490;SDS011;59307;50.060;9.150;2023-06-04T07:12:51;4.70;;;1.50;;
71490;SDS011;59307;50.060;9.150;2023-06-04T07:15:16;5.63;;;1.37;;
71490;SDS011;59307;50.060;9.150;2023-06-04T07:17:41;3.60;;;1.10;;
71490;SDS011;59307;50.060;9.150;2023-06-04T07:20:07;6.23;;;1.70;;
71490;SDS011;59307;50.060;9.150;2023-06-04T07:22:33;3.85;;;1.48;;
71490;SDS011;59307;50.060;9.150;2023-06-04T07:24:58;2.23;;;1.20;;
71490;SDS011;59307;50.060;9.150;2023-06-04T07:27:24;5.63;;;1.43;;
71490;SDS011;59307;50.060;9.150;2023-06-04T07:29:49;2.30;;;1.15;;
71490;SDS011;59307;50.060;9.150;2023-06-04T07:32:14;3.03;;;1.53;;
71490;SDS011;59307;50.060;9.150;2023-06-04T07:34:40;2.67;;;1.40;;
71490;SDS011;59307;50.060;9.150;2023-06-04T07:37:05;3.73;;;1.43;;
71490;SDS011;59307;50.060;9.150;2023-06-04T07:39:30;3.27;;;1.50;;
71490;SDS011;59307;50.060;9.150;2023-06-04T07:41:56;4.13;;;1.40;;
71490;SDS011;59307;50.060;9.150;2023-06-04T07:44:21;3.30;;;1.35;;
71490;SDS011;59307;50.060;9.150;2023-06-04T07:46:46;2.77;;;1.40;;
71490;SDS011;59307;50.060;9.150;2023-06-04T07:49:11;3.60;;;1.50;;
71490;SDS011;59307;50.060;9.150;2023-06-04T07:51:37;2.87;;;1.40;;
71490;SDS011;59307;50.060;9.150;2023-06-04T07:54:02;3.33;;;1.50;;
71490;SDS011;59307;50.060;9.150;2023-06-04T07:56:27;1.70;;;1.20;;
71490;SDS011;59307;50.060;9.150;2023-06-04T07:58:52;3.03;;;1.07;;
71490;SDS011;59307;50.060;9.150;2023-06-04T08:01:18;6.13;;;1.50;;
71490;SDS011;59307;50.060;9.150;2023-06-04T08:03:43;3.17;;;1.33;;
71490;SDS011;59307;50.060;9.150;2023-06-04T08:06:09;5.53;;;1.30;;
71490;SDS011;59307;50.060;9.150;2023-06-04T08:08:34;3.25;;;1.38;;
71490;SDS011;59307;50.060;9.150;2023-06-04T08:11:00;2.70;;;1.30;;
71490;SDS011;59307;50.060;9.150;2023-06-04T08:13:25;3.37;;;1.30;;
71490;SDS011;59307;50.060;9.150;2023-06-04T08:15:50;2.63;;;1.50;;
71490;SDS011;59307;50.060;9.150;2023-06-04T08:18:15;3.37;;;1.50;;
71490;SDS011;59307;50.060;9.150;2023-06-04T08:20:40;4.43;;;1.50;;
71490;SDS011;59307;50.060;9.150;2023-06-04T08:23:05;4.57;;;1.60;;
71490;SDS011;59307;50.060;9.150;2023-06-04T08:25:31;3.30;;;1.53;;
71490;SDS011;59307;50.060;9.150;2023-06-04T08:27:56;3.47;;;1.50;;
71490;SDS011;59307;50.060;9.150;2023-06-04T08:30:22;4.85;;;1.30;;
71490;SDS011;59307;50.060;9.150;2023-06-04T08:32:47;3.57;;;1.50;;
71490;SDS011;59307;50.060;9.150;2023-06-04T08:35:13;3.33;;;1.27;;
71490;SDS011;59307;50.060;9.150;2023-06-04T08:37:39;3.20;;;1.30;;
71490;SDS011;59307;50.060;9.150;2023-06-04T08:40:05;3.85;;;1.70;;
71490;SDS011;59307;50.060;9.150;2023-06-04T08:42:32;3.08;;;1.40;;
71490;SDS011;59307;50.060;9.150;2023-06-04T08:45:01;4.38;;;1.70;;
71490;SDS011;59307;50.060;9.150;2023-06-04T08:47:26;3.73;;;1.53;;
71490;SDS011;59307;50.060;9.150;2023-06-04T08:49:54;2.53;;;1.30;;
71490;SDS011;59307;50.060;9.150;2023-06-04T08:52:20;5.07;;;1.50;;
71490;SDS011;59307;50.060;9.150;2023-06-04T08:54:48;3.90;;;1.35;;
71490;SDS011;59307;50.060;9.150;2023-06-04T08:57:13;3.00;;;1.75;;
71490;SDS011;59307;50.060;9.150;2023-06-04T08:59:38;3.40;;;1.60;;
71490;SDS011;59307;50.060;9.150;2023-06-04T09:02:04;3.87;;;1.40;;
71490;SDS011;59307;50.060;9.150;2023-06-04T09:04:29;4.73;;;1.40;;
71490;SDS011;59307;50.060;9.150;2023-06-04T09:06:55;2.58;;;1.60;;
71490;SDS011;59307;50.060;9.150;2023-06-04T09:09:25;7.50;;;1.65;;
71490;SDS011;59307;50.060;9.150;2023-06-04T09:11:51;6.47;;;1.53;;
71490;SDS011;59307;50.060;9.150;2023-06-04T09:14:17;3.53;;;1.40;;
71490;SDS011;59307;50.060;9.150;2023-06-04T09:16:46;4.60;;;1.40;;
71490;SDS011;59307;50.060;9.150;2023-06-04T09:19:11;4.78;;;1.50;;
71490;SDS011;59307;50.060;9.150;2023-06-04T09:21:49;2.03;;;1.20;;
71490;SDS011;59307;50.060;9.150;2023-06-04T09:24:14;3.03;;;1.33;;
71490;SDS011;59307;50.060;9.150;2023-06-04T09:26:40;3.75;;;1.50;;
71490;SDS011;59307;50.060;9.150;2023-06-04T09:29:05;2.63;;;1.10;;
71490;SDS011;59307;50.060;9.150;2023-06-04T09:31:31;5.43;;;1.60;;
71490;SDS011;59307;50.060;9.150;2023-06-04T09:34:01;2.72;;;1.30;;
71490;SDS011;59307;50.060;9.150;2023-06-04T09:36:29;5.67;;;1.47;;
71490;SDS011;59307;50.060;9.150;2023-06-04T09:38:54;4.20;;;1.45;;
71490;SDS011;59307;50.060;9.150;2023-06-04T09:41:20;3.70;;;1.30;;
71490;SDS011;59307;50.060;9.150;2023-06-04T09:43:46;3.70;;;1.40;;
71490;SDS011;59307;50.060;9.150;2023-06-04T09:46:15;2.47;;;1.17;;
71490;SDS011;59307;50.060;9.150;2023-06-04T09:48:40;2.10;;;1.10;;
71490;SDS011;59307;50.060;9.150;2023-06-04T09:51:06;3.60;;;1.33;;
71490;SDS011;59307;50.060;9.150;2023-06-04T09:53:32;4.85;;;1.65;;
71490;SDS011;59307;50.060;9.150;2023-06-04T09:55:58;5.70;;;1.70;;
71490;SDS011;59307;50.060;9.150;2023-06-04T09:58:25;3.55;;;1.35;;
71490;SDS011;59307;50.060;9.150;2023-06-04T10:00:50;4.05;;;1.60;;
71490;SDS011;59307;50.060;9.150;2023-06-04T10:03:17;2.10;;;1.27;;
71490;SDS011;59307;50.060;9.150;2023-06-04T10:05:44;3.23;;;1.40;;
71490;SDS011;59307;50.060;9.150;2023-06-04T10:08:10;3.88;;;1.15;;
71490;SDS011;59307;50.060;9.150;2023-06-04T10:10:37;4.28;;;1.55;;
71490;SDS011;59307;50.060;9.150;2023-06-04T10:13:24;4.05;;;1.50;;
71490;SDS011;59307;50.060;9.150;2023-06-04T10:15:48;5.13;;;1.33;;
71490;SDS011;59307;50.060;9.150;2023-06-04T10:18:14;4.90;;;1.30;;
71490;SDS011;59307;50.060;9.150;2023-06-04T10:20:40;2.80;;;1.30;;
71490;SDS011;59307;50.060;9.150;2023-06-04T10:23:06;3.60;;;1.30;;
71490;SDS011;59307;50.060;9.150;2023-06-04T10:25:32;4.82;;;1.40;;
71490;SDS011;59307;50.060;9.150;2023-06-04T10:27:58;2.87;;;1.40;;
71490;SDS011;59307;50.060;9.150;2023-06-04T10:30:25;6.53;;;1.40;;
71490;SDS011;59307;50.060;9.150;2023-06-04T10:32:50;2.07;;;1.20;;
71490;SDS011;59307;50.060;9.150;2023-06-04T10:35:15;3.60;;;1.20;;
71490;SDS011;59307;50.060;9.150;2023-06-04T10:37:40;3.27;;;1.20;;
71490;SDS011;59307;50.060;9.150;2023-06-04T10:40:06;3.77;;;1.30;;
71490;SDS011;59307;50.060;9.150;2023-06-04T10:42:38;4.40;;;1.30;;
71490;SDS011;59307;50.060;9.150;2023-06-04T10:45:03;2.97;;;1.13;;
71490;SDS011;59307;50.060;9.150;2023-06-04T10:47:29;3.53;;;1.80;;
71490;SDS011;59307;50.060;9.150;2023-06-04T10:50:08;4.90;;;1.50;;
71490;SDS011;59307;50.060;9.150;2023-06-04T10:52:34;1.83;;;1.30;;
71490;SDS011;59307;50.060;9.150;2023-06-04T10:55:03;2.93;;;1.40;;
71490;SDS011;59307;50.060;9.150;2023-06-04T10:57:28;2.65;;;1.33;;
71490;SDS011;59307;50.060;9.150;2023-06-04T10:59:54;2.73;;;1.40;;
71490;SDS011;59307;50.060;9.150;2023-06-04T11:02:20;3.47;;;1.38;;
71490;SDS011;59307;50.060;9.150;2023-06-04T11:04:45;4.13;;;1.50;;
71490;SDS011;59307;50.060;9.150;2023-06-04T11:07:11;5.10;;;1.90;;
71490;SDS011;59307;50.060;9.150;2023-06-04T11:09:36;7.63;;;1.60;;
71490;SDS011;59307;50.060;9.150;2023-06-04T11:12:04;4.23;;;1.60;;
71490;SDS011;59307;50.060;9.150;2023-06-04T11:14:29;5.38;;;1.70;;
71490;SDS011;59307;50.060;9.150;2023-06-04T11:16:54;2.60;;;1.37;;
71490;SDS011;59307;50.060;9.150;2023-06-04T11:19:19;2.67;;;1.30;;
71490;SDS011;59307;50.060;9.150;2023-06-04T11:21:45;4.17;;;1.33;;
71490;SDS011;59307;50.060;9.150;2023-06-04T11:24:11;3.80;;;1.67;;
71490;SDS011;59307;50.060;9.150;2023-06-04T11:26:37;6.10;;;1.30;;
71490;SDS011;59307;50.060;9.150;2023-06-04T11:29:05;2.33;;;1.33;;
71490;SDS011;59307;50.060;9.150;2023-06-04T11:31:40;2.92;;;1.50;;
71490;SDS011;59307;50.060;9.150;2023-06-04T11:34:05;3.42;;;1.40;;
71490;SDS011;59307;50.060;9.150;2023-06-04T11:36:30;5.23;;;1.40;;
71490;SDS011;59307;50.060;9.150;2023-06-04T11:39:00;2.53;;;1.25;;
71490;SDS011;59307;50.060;9.150;2023-06-04T11:41:29;2.10;;;1.42;;
71490;SDS011;59307;50.060;9.150;2023-06-04T11:43:55;3.67;;;1.50;;
71490;SDS011;59307;50.060;9.150;2023-06-04T11:46:20;6.32;;;1.70;;
71490;SDS011;59307;50.060;9.150;2023-06-04T11:48:45;3.80;;;1.33;;
71490;SDS011;59307;50.060;9.150;2023-06-04T11:51:11;2.50;;;1.40;;
71490;SDS011;59307;50.060;9.150;2023-06-04T11:53:37;3.13;;;1.20;;
71490;SDS011;59307;50.060;9.150;2023-06-04T11:56:02;2.97;;;1.40;;
71490;SDS011;59307;50.060;9.150;2023-06-04T11:58:28;2.97;;;1.30;;
71490;SDS011;59307;50.060;9.150;2023-06-04T12:00:54;2.43;;;1.40;;
71490;SDS011;59307;50.060;9.150;2023-06-04T12:03:20;3.90;;;1.60;;
71490;SDS011;59307;50.060;9.150;2023-06-04T12:05:55;2.55;;;1.45;;
71490;SDS011;59307;50.060;9.150;2023-06-04T12:08:20;3.93;;;1.30;;
71490;SDS011;59307;50.060;9.150;2023-06-04T12:10:45;6.17;;;1.57;;
71490;SDS011;59307;50.060;9.150;2023-06-04T12:13:10;3.30;;;1.67;;
71490;SDS011;59307;50.060;9.150;2023-06-04T12:15:36;5.33;;;1.87;;
71490;SDS011;59307;50.060;9.150;2023-06-04T12:18:01;4.10;;;1.40;;
71490;SDS011;59307;50.060;9.150;2023-06-04T12:20:36;2.05;;;1.40;;
71490;SDS011;59307;50.060;9.150;2023-06-04T12:23:01;4.60;;;1.40;;
71490;SDS011;59307;50.060;9.150;2023-06-04T12:25:27;3.92;;;1.40;;
71490;SDS011;59307;50.060;9.150;2023-06-04T12:27:53;2.23;;;1.40;;
71490;SDS011;59307;50.060;9.150;2023-06-04T12:30:18;3.57;;;1.30;;
71490;SDS011;59307;50.060;9.150;2023-06-04T12:32:43;4.03;;;1.50;;
71490;SDS011;59307;50.060;9.150;2023-06-04T12:35:10;2.40;;;1.30;;
71490;SDS011;59307;50.060;9.150;2023-06-04T12:37:35;5.20;;;1.60;;
71490;SDS011;59307;50.060;9.150;2023-06-04T12:40:00;1.90;;;1.30;;
71490;SDS011;59307;50.060;9.150;2023-06-04T12:42:25;4.47;;;1.47;;
71490;SDS011;59307;50.060;9.150;2023-06-04T12:44:52;2.75;;;1.50;;
71490;SDS011;59307;50.060;9.150;2023-06-04T12:47:18;2.27;;;1.40;;
71490;SDS011;59307;50.060;9.150;2023-06-04T12:49:43;3.20;;;1.40;;
71490;SDS011;59307;50.060;9.150;2023-06-04T12:52:09;2.58;;;1.67;;
71490;SDS011;59307;50.060;9.150;2023-06-04T12:54:34;2.30;;;1.40;;
71490;SDS011;59307;50.060;9.150;2023-06-04T12:56:59;3.93;;;1.83;;
71490;SDS011;59307;50.060;9.150;2023-06-04T12:59:25;4.32;;;1.52;;
71490;SDS011;59307;50.060;9.150;2023-06-04T13:01:51;2.83;;;1.70;;
71490;SDS011;59307;50.060;9.150;2023-06-04T13:04:16;2.78;;;1.80;;
71490;SDS011;59307;50.060;9.150;2023-06-04T13:06:41;3.60;;;1.43;;
71490;SDS011;59307;50.060;9.150;2023-06-04T13:09:07;4.37;;;1.60;;
71490;SDS011;59307;50.060;9.150;2023-06-04T13:11:40;5.53;;;2.20;;
71490;SDS011;59307;50.060;9.150;2023-06-04T13:14:06;4.25;;;1.58;;
71490;SDS011;59307;50.060;9.150;2023-06-04T13:16:31;4.50;;;1.50;;
71490;SDS011;59307;50.060;9.150;2023-06-04T13:18:56;3.57;;;1.80;;
71490;SDS011;59307;50.060;9.150;2023-06-04T13:21:22;2.13;;;1.60;;
71490;SDS011;59307;50.060;9.150;2023-06-04T13:23:47;2.80;;;1.60;;
71490;SDS011;59307;50.060;9.150;2023-06-04T13:26:12;4.13;;;1.70;;
71490;SDS011;59307;50.060;9.150;2023-06-04T13:28:38;3.80;;;2.00;;
71490;SDS011;59307;50.060;9.150;2023-06-04T13:31:03;2.80;;;1.70;;
71490;SDS011;59307;50.060;9.150;2023-06-04T13:33:28;4.37;;;1.80;;
71490;SDS011;59307;50.060;9.150;2023-06-04T13:35:53;3.37;;;1.77;;
71490;SDS011;59307;50.060;9.150;2023-06-04T13:38:19;3.37;;;1.67;;
71490;SDS011;59307;50.060;9.150;2023-06-04T13:40:44;3.57;;;1.90;;
71490;SDS011;59307;50.060;9.150;2023-06-04T13:43:09;2.97;;;1.80;;
71490;SDS011;59307;50.060;9.150;2023-06-04T13:45:35;3.07;;;1.87;;
71490;SDS011;59307;50.060;9.150;2023-06-04T13:48:00;2.87;;;1.97;;
71490;SDS011;59307;50.060;9.150;2023-06-04T13:50:31;2.83;;;1.48;;
71490;SDS011;59307;50.060;9.150;2023-06-04T13:52:56;3.90;;;1.93;;
71490;SDS011;59307;50.060;9.150;2023-06-04T13:55:21;3.78;;;1.85;;
71490;SDS011;59307;50.060;9.150;2023-06-04T13:57:47;2.73;;;1.67;;
71490;SDS011;59307;50.060;9.150;2023-06-04T14:00:12;4.53;;;1.50;;
71490;SDS011;59307;50.060;9.150;2023-06-04T14:02:38;4.07;;;2.03;;
71490;SDS011;59307;50.060;9.150;2023-06-04T14:05:04;2.65;;;1.73;;
71490;SDS011;59307;50.060;9.150;2023-06-04T14:07:29;3.23;;;1.80;;
71490;SDS011;59307;50.060;9.150;2023-06-04T14:09:54;2.27;;;1.60;;
71490;SDS011;59307;50.060;9.150;2023-06-04T14:12:21;2.40;;;1.77;;
71490;SDS011;59307;50.060;9.150;2023-06-04T14:14:46;3.53;;;1.70;;
71490;SDS011;59307;50.060;9.150;2023-06-04T14:17:11;4.43;;;1.90;;
71490;SDS011;59307;50.060;9.150;2023-06-04T14:19:36;3.07;;;1.90;;
71490;SDS011;59307;50.060;9.150;2023-06-04T14:22:03;3.75;;;2.00;;
71490;SDS011;59307;50.060;9.150;2023-06-04T14:24:28;2.90;;;1.97;;
71490;SDS011;59307;50.060;9.150;2023-06-04T14:26:55;3.35;;;1.83;;
71490;SDS011;59307;50.060;9.150;2023-06-04T14:29:20;1.90;;;1.50;;
71490;SDS011;59307;50.060;9.150;2023-06-04T14:31:45;3.53;;;1.70;;
71490;SDS011;59307;50.060;9.150;2023-06-04T14:34:11;4.93;;;1.90;;
71490;SDS011;59307;50.060;9.150;2023-06-04T14:36:36;4.17;;;1.70;;
71490;SDS011;59307;50.060;9.150;2023-06-04T14:39:01;4.90;;;2.00;;
71490;SDS011;59307;50.060;9.150;2023-06-04T14:41:26;3.70;;;1.90;;
71490;SDS011;59307;50.060;9.150;2023-06-04T14:43:52;4.32;;;2.10;;